sensor_id;sensor_type;location;lat;lon;timestamp;temperature;humidity
13585;DHT22;6863;48.402;9.994;2022-10-15T00:00:47;12.90;99.90
13585;DHT22;6863;48.402;9.994;2022-10-15T00:03:13;12.90;99.90
13585;DHT22;6863;48.402;9.994;2022-10-15T00:05:39;12.90;99.90
13585;DHT22;6863;48.402;9.994;2022-10-15T00:08:06;12.90;99.90
13585;DHT22;6863;48.402;9.994;2022-10-15T00:10:32;12.90;99.90
13585;DHT22;6863;48.402;9.994;2022-10-15T00:12:58;12.90;99.90
13585;DHT22;6863;48.402;9.994;2022-10-15T00:15:24;12.90;99.90
13585;DHT22;6863;48.402;9.994;2022-10-15T00:17:49;12.90;99.90
13585;DHT22;6863;48.402;9.994;2022-10-15T00:20:15;12.90;99.90
13585;DHT22;6863;48.402;9.994;2022-10-15T00:22:41;12.90;99.90
13585;DHT22;6863;48.402;9.994;2022-10-15T00:25:07;12.90;99.90
13585;DHT22;6863;48.402;9.994;2022-10-15T00:27:34;12.90;99.90
13585;DHT22;6863;48.402;9.994;2022-10-15T00:29:59;12.90;99.90
13585;DHT22;6863;48.402;9.994;2022-10-15T00:32:28;13.00;99.90
13585;DHT22;6863;48.402;9.994;2022-10-15T00:34:54;12.90;99.90
13585;DHT22;6863;48.402;9.994;2022-10-15T00:37:19;12.90;99.90
13585;DHT22;6863;48.402;9.994;2022-10-15T00:39:45;12.90;99.90
13585;DHT22;6863;48.402;9.994;2022-10-15T00:42:11;12.90;99.90
13585;DHT22;6863;48.402;9.994;2022-10-15T00:47:19;13.00;99.90
13585;DHT22;6863;48.402;9.994;2022-10-15T00:52:26;13.00;99.90
13585;DHT22;6863;48.402;9.994;2022-10-15T00:55:16;13.00;99.90
13585;DHT22;6863;48.402;9.994;2022-10-15T00:57:46;13.00;99.90
13585;DHT22;6863;48.402;9.994;2022-10-15T01:00:14;13.00;99.90
13585;DHT22;6863;48.402;9.994;2022-10-15T01:02:41;13.00;99.90
13585;DHT22;6863;48.402;9.994;2022-10-15T01:05:07;13.00;99.90
13585;DHT22;6863;48.402;9.994;2022-10-15T01:07:33;13.00;99.90
13585;DHT22;6863;48.402;9.994;2022-10-15T01:09:59;13.00;99.90
13585;DHT22;6863;48.402;9.994;2022-10-15T01:15:24;13.00;99.90
13585;DHT22;6863;48.402;9.994;2022-10-15T01:17:58;13.00;99.90
13585;DHT22;6863;48.402;9.994;2022-10-15T01:32:11;13.10;99.90
13585;DHT22;6863;48.402;9.994;2022-10-15T01:37:44;13.10;99.90
13585;DHT22;6863;48.402;9.994;2022-10-15T01:40:20;13.20;99.90
13585;DHT22;6863;48.402;9.994;2022-10-15T01:43:08;13.20;99.90
13585;DHT22;6863;48.402;9.994;2022-10-15T01:45:45;13.10;99.90
13585;DHT22;6863;48.402;9.994;2022-10-15T01:48:13;13.10;99.90
13585;DHT22;6863;48.402;9.994;2022-10-15T01:50:44;13.20;99.90
13585;DHT22;6863;48.402;9.994;2022-10-15T01:53:16;13.20;99.90
13585;DHT22;6863;48.402;9.994;2022-10-15T01:55:44;13.20;99.90
13585;DHT22;6863;48.402;9.994;2022-10-15T01:58:11;13.20;99.90
13585;DHT22;6863;48.402;9.994;2022-10-15T02:00:40;13.20;99.90
13585;DHT22;6863;48.402;9.994;2022-10-15T02:03:06;13.20;99.90
13585;DHT22;6863;48.402;9.994;2022-10-15T02:05:38;13.30;99.90
13585;DHT22;6863;48.402;9.994;2022-10-15T02:08:24;13.30;99.90
13585;DHT22;6863;48.402;9.994;2022-10-15T02:11:19;13.30;99.90
13585;DHT22;6863;48.402;9.994;2022-10-15T02:14:02;13.30;99.90
13585;DHT22;6863;48.402;9.994;2022-10-15T02:16:39;13.30;99.90
13585;DHT22;6863;48.402;9.994;2022-10-15T02:21:52;13.40;99.90
13585;DHT22;6863;48.402;9.994;2022-10-15T02:24:28;13.40;99.90
13585;DHT22;6863;48.402;9.994;2022-10-15T02:26:57;13.40;99.90
13585;DHT22;6863;48.402;9.994;2022-10-15T02:29:26;13.40;99.90
13585;DHT22;6863;48.402;9.994;2022-10-15T02:31:56;13.50;99.90
13585;DHT22;6863;48.402;9.994;2022-10-15T02:34:26;13.50;99.90
13585;DHT22;6863;48.402;9.994;2022-10-15T02:36:52;13.50;99.90
13585;DHT22;6863;48.402;9.994;2022-10-15T02:39:22;13.60;99.90
13585;DHT22;6863;48.402;9.994;2022-10-15T02:41:52;13.60;99.90
13585;DHT22;6863;48.402;9.994;2022-10-15T02:44:18;13.60;99.90
13585;DHT22;6863;48.402;9.994;2022-10-15T02:46:44;13.60;99.90
13585;DHT22;6863;48.402;9.994;2022-10-15T02:49:09;13.70;99.90
13585;DHT22;6863;48.402;9.994;2022-10-15T02:51:36;13.70;99.90
13585;DHT22;6863;48.402;9.994;2022-10-15T02:54:03;13.70;99.90
13585;DHT22;6863;48.402;9.994;2022-10-15T02:56:29;13.70;99.90
13585;DHT22;6863;48.402;9.994;2022-10-15T02:58:55;13.70;99.90
13585;DHT22;6863;48.402;9.994;2022-10-15T03:01:20;13.80;99.90
13585;DHT22;6863;48.402;9.994;2022-10-15T03:03:46;13.80;99.90
13585;DHT22;6863;48.402;9.994;2022-10-15T03:06:12;13.80;99.90
13585;DHT22;6863;48.402;9.994;2022-10-15T03:08:38;13.80;99.90
13585;DHT22;6863;48.402;9.994;2022-10-15T03:11:04;13.90;99.90
13585;DHT22;6863;48.402;9.994;2022-10-15T03:13:30;13.90;99.90
13585;DHT22;6863;48.402;9.994;2022-10-15T03:15:55;14.00;99.90
13585;DHT22;6863;48.402;9.994;2022-10-15T03:18:21;14.00;99.90
13585;DHT22;6863;48.402;9.994;2022-10-15T03:20:54;14.00;99.90
13585;DHT22;6863;48.402;9.994;2022-10-15T03:23:20;14.10;99.90
13585;DHT22;6863;48.402;9.994;2022-10-15T03:25:45;14.10;99.90
13585;DHT22;6863;48.402;9.994;2022-10-15T03:28:11;14.20;99.90
13585;DHT22;6863;48.402;9.994;2022-10-15T03:30:37;14.10;99.90
13585;DHT22;6863;48.402;9.994;2022-10-15T03:33:02;14.20;99.90
13585;DHT22;6863;48.402;9.994;2022-10-15T03:35:28;14.20;99.90
13585;DHT22;6863;48.402;9.994;2022-10-15T03:37:54;14.20;99.90
13585;DHT22;6863;48.402;9.994;2022-10-15T03:40:19;14.20;99.90
13585;DHT22;6863;48.402;9.994;2022-10-15T03:42:49;14.20;99.90
13585;DHT22;6863;48.402;9.994;2022-10-15T03:45:16;14.20;99.90
13585;DHT22;6863;48.402;9.994;2022-10-15T03:47:41;14.20;99.90
13585;DHT22;6863;48.402;9.994;2022-10-15T03:50:07;14.20;99.90
13585;DHT22;6863;48.402;9.994;2022-10-15T03:52:34;14.20;99.90
13585;DHT22;6863;48.402;9.994;2022-10-15T03:55:00;14.30;99.90
13585;DHT22;6863;48.402;9.994;2022-10-15T03:57:25;14.20;99.90
13585;DHT22;6863;48.402;9.994;2022-10-15T03:59:51;14.20;99.90
13585;DHT22;6863;48.402;9.994;2022-10-15T04:02:16;14.20;99.90
13585;DHT22;6863;48.402;9.994;2022-10-15T04:04:42;14.30;99.90
13585;DHT22;6863;48.402;9.994;2022-10-15T04:07:08;14.30;99.90
13585;DHT22;6863;48.402;9.994;2022-10-15T04:09:33;14.30;99.90
13585;DHT22;6863;48.402;9.994;2022-10-15T04:11:59;14.30;99.90
13585;DHT22;6863;48.402;9.994;2022-10-15T04:14:25;14.30;99.90
13585;DHT22;6863;48.402;9.994;2022-10-15T04:16:50;14.40;99.90
13585;DHT22;6863;48.402;9.994;2022-10-15T04:19:16;14.40;99.90
13585;DHT22;6863;48.402;9.994;2022-10-15T04:21:42;14.40;99.90
13585;DHT22;6863;48.402;9.994;2022-10-15T04:24:08;14.30;99.90
13585;DHT22;6863;48.402;9.994;2022-10-15T04:26:33;14.40;99.90
13585;DHT22;6863;48.402;9.994;2022-10-15T04:28:59;14.40;99.90
13585;DHT22;6863;48.402;9.994;2022-10-15T04:31:25;14.40;99.90
13585;DHT22;6863;48.402;9.994;2022-10-15T04:33:50;14.30;99.90
13585;DHT22;6863;48.402;9.994;2022-10-15T04:36:16;14.40;99.90
13585;DHT22;6863;48.402;9.994;2022-10-15T04:38:41;14.40;99.90
13585;DHT22;6863;48.402;9.994;2022-10-15T04:41:09;14.40;99.90
13585;DHT22;6863;48.402;9.994;2022-10-15T04:43:35;14.40;99.90
13585;DHT22;6863;48.402;9.994;2022-10-15T04:46:03;14.40;99.90
13585;DHT22;6863;48.402;9.994;2022-10-15T04:48:30;14.40;99.90
13585;DHT22;6863;48.402;9.994;2022-10-15T04:51:07;14.40;99.90
13585;DHT22;6863;48.402;9.994;2022-10-15T04:53:33;14.40;99.90
13585;DHT22;6863;48.402;9.994;2022-10-15T04:56:03;14.40;99.90
13585;DHT22;6863;48.402;9.994;2022-10-15T04:58:30;14.30;99.90
13585;DHT22;6863;48.402;9.994;2022-10-15T05:00:59;14.40;99.90
13585;DHT22;6863;48.402;9.994;2022-10-15T05:03:25;14.40;99.90
13585;DHT22;6863;48.402;9.994;2022-10-15T05:05:51;14.30;99.90
13585;DHT22;6863;48.402;9.994;2022-10-15T05:08:16;14.30;99.90
13585;DHT22;6863;48.402;9.994;2022-10-15T05:10:42;14.30;99.90
13585;DHT22;6863;48.402;9.994;2022-10-15T05:13:07;14.30;99.90
13585;DHT22;6863;48.402;9.994;2022-10-15T05:15:33;14.40;99.90
13585;DHT22;6863;48.402;9.994;2022-10-15T05:17:58;14.40;99.90
13585;DHT22;6863;48.402;9.994;2022-10-15T05:20:24;14.40;99.90
13585;DHT22;6863;48.402;9.994;2022-10-15T05:22:50;14.40;99.90
13585;DHT22;6863;48.402;9.994;2022-10-15T05:25:15;14.40;99.90
13585;DHT22;6863;48.402;9.994;2022-10-15T05:27:41;14.40;99.90
13585;DHT22;6863;48.402;9.994;2022-10-15T05:30:07;14.40;99.90
13585;DHT22;6863;48.402;9.994;2022-10-15T05:32:32;14.40;99.90
13585;DHT22;6863;48.402;9.994;2022-10-15T05:34:58;14.40;99.90
13585;DHT22;6863;48.402;9.994;2022-10-15T05:37:23;14.40;99.90
13585;DHT22;6863;48.402;9.994;2022-10-15T05:39:49;14.40;99.90
13585;DHT22;6863;48.402;9.994;2022-10-15T05:42:15;14.50;99.90
13585;DHT22;6863;48.402;9.994;2022-10-15T05:44:40;14.50;99.90
13585;DHT22;6863;48.402;9.994;2022-10-15T05:47:06;14.40;99.90
13585;DHT22;6863;48.402;9.994;2022-10-15T05:49:36;14.50;99.90
13585;DHT22;6863;48.402;9.994;2022-10-15T05:52:01;14.50;99.90
13585;DHT22;6863;48.402;9.994;2022-10-15T05:54:27;14.50;99.90
13585;DHT22;6863;48.402;9.994;2022-10-15T05:56:52;14.50;99.90
13585;DHT22;6863;48.402;9.994;2022-10-15T05:59:18;14.40;99.90
13585;DHT22;6863;48.402;9.994;2022-10-15T06:01:43;14.40;99.90
13585;DHT22;6863;48.402;9.994;2022-10-15T06:04:09;14.50;99.90
13585;DHT22;6863;48.402;9.994;2022-10-15T06:06:35;14.50;99.90
13585;DHT22;6863;48.402;9.994;2022-10-15T06:09:01;14.50;99.90
13585;DHT22;6863;48.402;9.994;2022-10-15T06:11:26;14.60;99.90
13585;DHT22;6863;48.402;9.994;2022-10-15T06:13:52;14.50;99.90
13585;DHT22;6863;48.402;9.994;2022-10-15T06:16:18;14.60;99.90
13585;DHT22;6863;48.402;9.994;2022-10-15T06:18:43;14.60;99.90
13585;DHT22;6863;48.402;9.994;2022-10-15T06:21:10;14.60;99.90
13585;DHT22;6863;48.402;9.994;2022-10-15T06:23:36;14.60;99.90
13585;DHT22;6863;48.402;9.994;2022-10-15T06:26:06;14.60;99.90
13585;DHT22;6863;48.402;9.994;2022-10-15T06:28:33;14.60;99.90
13585;DHT22;6863;48.402;9.994;2022-10-15T06:30:59;14.60;99.90
13585;DHT22;6863;48.402;9.994;2022-10-15T06:33:25;14.60;99.90
13585;DHT22;6863;48.402;9.994;2022-10-15T06:35:51;14.60;99.90
13585;DHT22;6863;48.402;9.994;2022-10-15T06:38:16;14.70;99.90
13585;DHT22;6863;48.402;9.994;2022-10-15T06:40:42;14.70;99.90
13585;DHT22;6863;48.402;9.994;2022-10-15T06:43:09;14.70;99.90
13585;DHT22;6863;48.402;9.994;2022-10-15T06:45:40;14.70;99.90
13585;DHT22;6863;48.402;9.994;2022-10-15T06:48:09;14.80;99.90
13585;DHT22;6863;48.402;9.994;2022-10-15T06:50:36;14.80;99.90
13585;DHT22;6863;48.402;9.994;2022-10-15T06:53:03;14.80;99.90
13585;DHT22;6863;48.402;9.994;2022-10-15T06:55:29;14.90;99.90
13585;DHT22;6863;48.402;9.994;2022-10-15T06:57:56;15.00;99.90
13585;DHT22;6863;48.402;9.994;2022-10-15T07:00:22;15.00;99.90
13585;DHT22;6863;48.402;9.994;2022-10-15T07:02:48;15.10;99.90
13585;DHT22;6863;48.402;9.994;2022-10-15T07:05:14;15.10;99.90
13585;DHT22;6863;48.402;9.994;2022-10-15T07:07:39;15.20;99.90
13585;DHT22;6863;48.402;9.994;2022-10-15T07:10:05;15.20;99.90
13585;DHT22;6863;48.402;9.994;2022-10-15T07:12:31;15.20;99.90
13585;DHT22;6863;48.402;9.994;2022-10-15T07:14:57;15.20;99.90
13585;DHT22;6863;48.402;9.994;2022-10-15T07:17:22;15.30;99.90
13585;DHT22;6863;48.402;9.994;2022-10-15T07:19:48;15.30;99.90
13585;DHT22;6863;48.402;9.994;2022-10-15T07:22:13;15.40;99.90
13585;DHT22;6863;48.402;9.994;2022-10-15T07:24:39;15.40;99.90
13585;DHT22;6863;48.402;9.994;2022-10-15T07:27:05;15.50;99.90
13585;DHT22;6863;48.402;9.994;2022-10-15T07:29:30;15.60;99.90
13585;DHT22;6863;48.402;9.994;2022-10-15T07:31:56;15.70;99.90
13585;DHT22;6863;48.402;9.994;2022-10-15T07:34:22;15.70;99.90
13585;DHT22;6863;48.402;9.994;2022-10-15T07:36:47;15.70;99.90
13585;DHT22;6863;48.402;9.994;2022-10-15T07:39:13;15.70;99.90
13585;DHT22;6863;48.402;9.994;2022-10-15T07:41:39;15.70;99.90
13585;DHT22;6863;48.402;9.994;2022-10-15T07:44:08;15.80;99.90
13585;DHT22;6863;48.402;9.994;2022-10-15T07:46:33;15.80;99.90
13585;DHT22;6863;48.402;9.994;2022-10-15T07:48:59;15.90;99.90
13585;DHT22;6863;48.402;9.994;2022-10-15T07:51:25;16.00;99.90
13585;DHT22;6863;48.402;9.994;2022-10-15T07:53:51;16.10;99.90
13585;DHT22;6863;48.402;9.994;2022-10-15T07:56:16;16.20;99.90
13585;DHT22;6863;48.402;9.994;2022-10-15T07:58:42;16.20;99.90
13585;DHT22;6863;48.402;9.994;2022-10-15T08:01:15;16.20;99.90
13585;DHT22;6863;48.402;9.994;2022-10-15T08:03:41;16.20;99.90
13585;DHT22;6863;48.402;9.994;2022-10-15T08:06:08;16.20;99.90
13585;DHT22;6863;48.402;9.994;2022-10-15T08:08:35;16.00;99.90
13585;DHT22;6863;48.402;9.994;2022-10-15T08:11:18;16.00;99.90
13585;DHT22;6863;48.402;9.994;2022-10-15T08:13:44;16.00;99.90
13585;DHT22;6863;48.402;9.994;2022-10-15T08:16:12;16.00;99.90
13585;DHT22;6863;48.402;9.994;2022-10-15T08:18:38;16.00;99.90
13585;DHT22;6863;48.402;9.994;2022-10-15T08:21:06;16.10;99.90
13585;DHT22;6863;48.402;9.994;2022-10-15T08:23:34;16.10;99.90
13585;DHT22;6863;48.402;9.994;2022-10-15T08:26:00;16.00;99.90
13585;DHT22;6863;48.402;9.994;2022-10-15T08:28:29;16.10;99.90
13585;DHT22;6863;48.402;9.994;2022-10-15T08:30:59;16.20;99.90
13585;DHT22;6863;48.402;9.994;2022-10-15T08:33:25;16.40;99.90
13585;DHT22;6863;48.402;9.994;2022-10-15T08:35:51;16.40;99.90
13585;DHT22;6863;48.402;9.994;2022-10-15T08:38:17;16.60;99.90
13585;DHT22;6863;48.402;9.994;2022-10-15T08:40:54;16.60;99.90
13585;DHT22;6863;48.402;9.994;2022-10-15T08:43:35;16.60;99.90
13585;DHT22;6863;48.402;9.994;2022-10-15T08:46:05;16.40;99.90
13585;DHT22;6863;48.402;9.994;2022-10-15T08:48:33;16.50;99.90
13585;DHT22;6863;48.402;9.994;2022-10-15T08:51:05;16.60;99.90
13585;DHT22;6863;48.402;9.994;2022-10-15T08:53:44;16.70;99.90
13585;DHT22;6863;48.402;9.994;2022-10-15T08:56:27;16.50;99.90
13585;DHT22;6863;48.402;9.994;2022-10-15T08:59:07;16.60;99.90
13585;DHT22;6863;48.402;9.994;2022-10-15T09:05:32;17.10;99.90
13585;DHT22;6863;48.402;9.994;2022-10-15T09:08:01;17.80;99.90
13585;DHT22;6863;48.402;9.994;2022-10-15T09:13:03;17.60;99.90
13585;DHT22;6863;48.402;9.994;2022-10-15T09:15:36;17.90;99.90
13585;DHT22;6863;48.402;9.994;2022-10-15T09:18:05;18.10;99.90
13585;DHT22;6863;48.402;9.994;2022-10-15T09:20:37;18.60;99.90
13585;DHT22;6863;48.402;9.994;2022-10-15T09:23:07;18.50;99.90
13585;DHT22;6863;48.402;9.994;2022-10-15T09:25:37;18.20;99.90
13585;DHT22;6863;48.402;9.994;2022-10-15T09:28:09;18.00;99.90
13585;DHT22;6863;48.402;9.994;2022-10-15T09:30:48;18.00;99.90
13585;DHT22;6863;48.402;9.994;2022-10-15T09:33:38;18.20;99.90
13585;DHT22;6863;48.402;9.994;2022-10-15T09:36:25;18.50;99.90
13585;DHT22;6863;48.402;9.994;2022-10-15T09:42:03;19.10;99.90
13585;DHT22;6863;48.402;9.994;2022-10-15T09:44:36;19.20;99.90
13585;DHT22;6863;48.402;9.994;2022-10-15T09:47:19;18.80;99.90
13585;DHT22;6863;48.402;9.994;2022-10-15T09:49:47;19.20;99.90
13585;DHT22;6863;48.402;9.994;2022-10-15T09:54:59;20.50;99.90
13585;DHT22;6863;48.402;9.994;2022-10-15T09:57:28;19.80;99.90
13585;DHT22;6863;48.402;9.994;2022-10-15T09:59:58;19.50;99.90
13585;DHT22;6863;48.402;9.994;2022-10-15T10:02:27;19.40;99.90
13585;DHT22;6863;48.402;9.994;2022-10-15T10:04:54;19.30;99.90
13585;DHT22;6863;48.402;9.994;2022-10-15T10:09:56;19.00;99.90
13585;DHT22;6863;48.402;9.994;2022-10-15T10:12:27;18.90;99.90
13585;DHT22;6863;48.402;9.994;2022-10-15T10:14:57;18.70;99.90
13585;DHT22;6863;48.402;9.994;2022-10-15T10:17:28;18.40;99.90
13585;DHT22;6863;48.402;9.994;2022-10-15T10:20:12;18.30;99.90
13585;DHT22;6863;48.402;9.994;2022-10-15T10:22:53;18.40;99.90
13585;DHT22;6863;48.402;9.994;2022-10-15T10:27:51;19.10;99.90
13585;DHT22;6863;48.402;9.994;2022-10-15T10:30:17;19.60;99.90
13585;DHT22;6863;48.402;9.994;2022-10-15T10:32:43;19.60;99.90
13585;DHT22;6863;48.402;9.994;2022-10-15T10:35:23;19.40;99.90
13585;DHT22;6863;48.402;9.994;2022-10-15T10:37:49;19.40;99.90
13585;DHT22;6863;48.402;9.994;2022-10-15T10:40:33;19.60;99.90
13585;DHT22;6863;48.402;9.994;2022-10-15T10:45:36;20.50;99.60
13585;DHT22;6863;48.402;9.994;2022-10-15T10:48:26;20.00;99.80
13585;DHT22;6863;48.402;9.994;2022-10-15T10:51:25;19.80;99.90
13585;DHT22;6863;48.402;9.994;2022-10-15T10:53:58;20.10;99.10
13585;DHT22;6863;48.402;9.994;2022-10-15T10:56:45;20.60;98.50
13585;DHT22;6863;48.402;9.994;2022-10-15T10:59:36;20.70;98.00
13585;DHT22;6863;48.402;9.994;2022-10-15T11:02:11;20.40;98.30
13585;DHT22;6863;48.402;9.994;2022-10-15T11:05:12;19.50;99.40
13585;DHT22;6863;48.402;9.994;2022-10-15T11:16:23;22.80;94.50
13585;DHT22;6863;48.402;9.994;2022-10-15T11:19:11;22.70;93.20
13585;DHT22;6863;48.402;9.994;2022-10-15T11:24:45;23.80;91.50
13585;DHT22;6863;48.402;9.994;2022-10-15T11:27:19;24.10;90.50
13585;DHT22;6863;48.402;9.994;2022-10-15T11:33:22;24.90;85.30
13585;DHT22;6863;48.402;9.994;2022-10-15T11:50:34;23.30;86.70
13585;DHT22;6863;48.402;9.994;2022-10-15T11:56:23;21.70;91.10
13585;DHT22;6863;48.402;9.994;2022-10-15T11:59:04;21.70;92.20
13585;DHT22;6863;48.402;9.994;2022-10-15T12:02:02;21.80;91.60
13585;DHT22;6863;48.402;9.994;2022-10-15T12:04:43;21.90;91.90
13585;DHT22;6863;48.402;9.994;2022-10-15T12:07:40;22.40;91.10
13585;DHT22;6863;48.402;9.994;2022-10-15T12:16:45;21.10;92.20
13585;DHT22;6863;48.402;9.994;2022-10-15T12:22:03;20.00;95.10
13585;DHT22;6863;48.402;9.994;2022-10-15T12:27:24;20.30;95.80
13585;DHT22;6863;48.402;9.994;2022-10-15T12:32:43;19.90;96.50
13585;DHT22;6863;48.402;9.994;2022-10-15T12:35:18;20.00;96.40
13585;DHT22;6863;48.402;9.994;2022-10-15T12:37:46;20.10;95.90
13585;DHT22;6863;48.402;9.994;2022-10-15T12:45:36;20.40;95.70
13585;DHT22;6863;48.402;9.994;2022-10-15T12:50:30;20.30;95.60
13585;DHT22;6863;48.402;9.994;2022-10-15T13:00:44;23.00;90.70
13585;DHT22;6863;48.402;9.994;2022-10-15T13:03:23;24.80;84.60
13585;DHT22;6863;48.402;9.994;2022-10-15T13:05:50;26.00;78.20
13585;DHT22;6863;48.402;9.994;2022-10-15T13:08:24;26.90;74.30
13585;DHT22;6863;48.402;9.994;2022-10-15T13:10:58;27.10;70.60
13585;DHT22;6863;48.402;9.994;2022-10-15T13:13:31;26.40;72.30
13585;DHT22;6863;48.402;9.994;2022-10-15T13:16:05;25.40;73.40
13585;DHT22;6863;48.402;9.994;2022-10-15T13:18:52;23.90;77.10
13585;DHT22;6863;48.402;9.994;2022-10-15T13:21:48;22.40;84.30
13585;DHT22;6863;48.402;9.994;2022-10-15T13:24:20;21.10;90.30
13585;DHT22;6863;48.402;9.994;2022-10-15T13:26:47;21.00;91.20
13585;DHT22;6863;48.402;9.994;2022-10-15T13:29:15;20.60;91.80
13585;DHT22;6863;48.402;9.994;2022-10-15T13:31:41;20.00;93.20
13585;DHT22;6863;48.402;9.994;2022-10-15T13:34:27;19.70;94.40
13585;DHT22;6863;48.402;9.994;2022-10-15T13:36:55;19.40;95.40
13585;DHT22;6863;48.402;9.994;2022-10-15T13:39:34;19.30;95.90
13585;DHT22;6863;48.402;9.994;2022-10-15T13:42:16;19.20;96.40
13585;DHT22;6863;48.402;9.994;2022-10-15T13:44:54;19.60;96.10
13585;DHT22;6863;48.402;9.994;2022-10-15T13:55:37;24.80;81.70
13585;DHT22;6863;48.402;9.994;2022-10-15T13:58:28;23.60;83.60
13585;DHT22;6863;48.402;9.994;2022-10-15T14:01:09;22.60;86.50
13585;DHT22;6863;48.402;9.994;2022-10-15T14:03:45;22.50;88.20
13585;DHT22;6863;48.402;9.994;2022-10-15T14:08:45;21.20;91.00
13585;DHT22;6863;48.402;9.994;2022-10-15T14:11:12;21.10;91.70
13585;DHT22;6863;48.402;9.994;2022-10-15T14:13:46;21.70;91.40
13585;DHT22;6863;48.402;9.994;2022-10-15T14:16:43;22.80;90.00
13585;DHT22;6863;48.402;9.994;2022-10-15T14:19:14;23.60;86.40
13585;DHT22;6863;48.402;9.994;2022-10-15T14:21:57;23.70;84.80
13585;DHT22;6863;48.402;9.994;2022-10-15T14:24:37;24.50;81.70
13585;DHT22;6863;48.402;9.994;2022-10-15T14:27:16;23.80;82.60
13585;DHT22;6863;48.402;9.994;2022-10-15T14:29:44;22.80;84.90
13585;DHT22;6863;48.402;9.994;2022-10-15T14:32:46;22.30;87.60
13585;DHT22;6863;48.402;9.994;2022-10-15T14:35:33;21.60;89.30
13585;DHT22;6863;48.402;9.994;2022-10-15T14:38:02;20.70;91.40
13585;DHT22;6863;48.402;9.994;2022-10-15T14:40:29;20.60;92.20
13585;DHT22;6863;48.402;9.994;2022-10-15T14:43:14;20.20;92.90
13585;DHT22;6863;48.402;9.994;2022-10-15T14:48:31;19.60;94.80
13585;DHT22;6863;48.402;9.994;2022-10-15T14:50:59;19.30;95.90
13585;DHT22;6863;48.402;9.994;2022-10-15T14:53:38;19.10;96.70
13585;DHT22;6863;48.402;9.994;2022-10-15T14:56:23;18.90;97.40
13585;DHT22;6863;48.402;9.994;2022-10-15T14:58:58;19.10;97.50
13585;DHT22;6863;48.402;9.994;2022-10-15T15:01:38;19.20;97.40
13585;DHT22;6863;48.402;9.994;2022-10-15T15:04:43;19.00;97.70
13585;DHT22;6863;48.402;9.994;2022-10-15T15:07:17;19.30;97.60
13585;DHT22;6863;48.402;9.994;2022-10-15T15:09:46;19.20;97.80
13585;DHT22;6863;48.402;9.994;2022-10-15T15:12:16;19.30;97.80
13585;DHT22;6863;48.402;9.994;2022-10-15T15:14:43;19.20;98.00
13585;DHT22;6863;48.402;9.994;2022-10-15T15:17:24;19.00;98.30
13585;DHT22;6863;48.402;9.994;2022-10-15T15:19:51;18.90;98.60
13585;DHT22;6863;48.402;9.994;2022-10-15T15:22:22;18.90;99.00
13585;DHT22;6863;48.402;9.994;2022-10-15T15:24:50;18.80;99.00
13585;DHT22;6863;48.402;9.994;2022-10-15T15:27:32;18.80;99.40
13585;DHT22;6863;48.402;9.994;2022-10-15T15:30:04;18.80;99.60
13585;DHT22;6863;48.402;9.994;2022-10-15T15:32:30;18.70;99.80
13585;DHT22;6863;48.402;9.994;2022-10-15T15:34:56;18.80;99.90
13585;DHT22;6863;48.402;9.994;2022-10-15T15:37:23;18.80;99.90
13585;DHT22;6863;48.402;9.994;2022-10-15T15:39:49;18.60;99.90
13585;DHT22;6863;48.402;9.994;2022-10-15T15:42:18;18.60;99.90
13585;DHT22;6863;48.402;9.994;2022-10-15T15:44:44;18.60;99.90
13585;DHT22;6863;48.402;9.994;2022-10-15T15:47:11;18.60;99.90
13585;DHT22;6863;48.402;9.994;2022-10-15T15:49:37;18.60;99.90
13585;DHT22;6863;48.402;9.994;2022-10-15T15:52:07;18.40;99.90
13585;DHT22;6863;48.402;9.994;2022-10-15T15:54:36;18.20;99.90
13585;DHT22;6863;48.402;9.994;2022-10-15T15:57:02;18.10;99.90
13585;DHT22;6863;48.402;9.994;2022-10-15T15:59:28;18.10;99.90
13585;DHT22;6863;48.402;9.994;2022-10-15T16:01:53;18.00;99.90
13585;DHT22;6863;48.402;9.994;2022-10-15T16:04:19;18.00;99.90
13585;DHT22;6863;48.402;9.994;2022-10-15T16:06:45;18.00;99.90
13585;DHT22;6863;48.402;9.994;2022-10-15T16:09:14;18.00;99.90
13585;DHT22;6863;48.402;9.994;2022-10-15T16:11:40;18.00;99.90
13585;DHT22;6863;48.402;9.994;2022-10-15T16:14:06;18.00;99.90
13585;DHT22;6863;48.402;9.994;2022-10-15T16:16:32;17.90;99.90
13585;DHT22;6863;48.402;9.994;2022-10-15T16:18:57;17.90;99.90
13585;DHT22;6863;48.402;9.994;2022-10-15T16:21:27;17.80;99.90
13585;DHT22;6863;48.402;9.994;2022-10-15T16:23:53;17.70;99.90
13585;DHT22;6863;48.402;9.994;2022-10-15T16:26:19;17.70;99.90
13585;DHT22;6863;48.402;9.994;2022-10-15T16:28:45;17.70;99.90
13585;DHT22;6863;48.402;9.994;2022-10-15T16:31:17;17.60;99.90
13585;DHT22;6863;48.402;9.994;2022-10-15T16:33:44;17.60;99.90
13585;DHT22;6863;48.402;9.994;2022-10-15T16:36:09;17.50;99.90
13585;DHT22;6863;48.402;9.994;2022-10-15T16:38:37;17.40;99.90
13585;DHT22;6863;48.402;9.994;2022-10-15T16:41:03;17.30;99.90
13585;DHT22;6863;48.402;9.994;2022-10-15T16:43:29;17.20;99.90
13585;DHT22;6863;48.402;9.994;2022-10-15T16:45:58;17.20;99.90
13585;DHT22;6863;48.402;9.994;2022-10-15T16:48:24;17.20;99.90
13585;DHT22;6863;48.402;9.994;2022-10-15T16:51:13;17.10;99.90
13585;DHT22;6863;48.402;9.994;2022-10-15T16:53:42;17.10;99.90
13585;DHT22;6863;48.402;9.994;2022-10-15T16:56:14;17.00;99.90
13585;DHT22;6863;48.402;9.994;2022-10-15T16:58:40;16.90;99.90
13585;DHT22;6863;48.402;9.994;2022-10-15T17:01:32;16.90;99.90
13585;DHT22;6863;48.402;9.994;2022-10-15T17:03:58;16.90;99.90
13585;DHT22;6863;48.402;9.994;2022-10-15T17:06:26;16.80;99.90
13585;DHT22;6863;48.402;9.994;2022-10-15T17:08:57;16.80;99.90
13585;DHT22;6863;48.402;9.994;2022-10-15T17:13:53;16.70;99.90
13585;DHT22;6863;48.402;9.994;2022-10-15T17:16:21;16.70;99.90
13585;DHT22;6863;48.402;9.994;2022-10-15T17:18:48;16.60;99.90
13585;DHT22;6863;48.402;9.994;2022-10-15T17:21:17;16.60;99.90
13585;DHT22;6863;48.402;9.994;2022-10-15T17:23:43;16.50;99.90
13585;DHT22;6863;48.402;9.994;2022-10-15T17:26:12;16.50;99.90
13585;DHT22;6863;48.402;9.994;2022-10-15T17:28:39;16.40;99.90
13585;DHT22;6863;48.402;9.994;2022-10-15T17:31:10;16.30;99.90
13585;DHT22;6863;48.402;9.994;2022-10-15T17:33:37;16.20;99.90
13585;DHT22;6863;48.402;9.994;2022-10-15T17:36:08;16.10;99.90
13585;DHT22;6863;48.402;9.994;2022-10-15T17:38:34;15.90;99.90
13585;DHT22;6863;48.402;9.994;2022-10-15T17:41:08;15.80;99.90
13585;DHT22;6863;48.402;9.994;2022-10-15T17:43:34;15.70;99.90
13585;DHT22;6863;48.402;9.994;2022-10-15T17:46:09;15.60;99.90
13585;DHT22;6863;48.402;9.994;2022-10-15T17:48:35;15.70;99.90
13585;DHT22;6863;48.402;9.994;2022-10-15T17:51:03;15.60;99.90
13585;DHT22;6863;48.402;9.994;2022-10-15T17:53:28;15.60;99.90
13585;DHT22;6863;48.402;9.994;2022-10-15T17:55:55;15.60;99.90
13585;DHT22;6863;48.402;9.994;2022-10-15T17:58:21;15.50;99.90
13585;DHT22;6863;48.402;9.994;2022-10-15T18:00:55;15.40;99.90
13585;DHT22;6863;48.402;9.994;2022-10-15T18:03:22;15.30;99.90
13585;DHT22;6863;48.402;9.994;2022-10-15T18:05:48;15.20;99.90
13585;DHT22;6863;48.402;9.994;2022-10-15T18:08:15;15.20;99.90